sensor_id;sensor_type;location;lat;lon;timestamp;P1;durP1;ratioP1;P2;durP2;ratioP2
37973;SDS011;23796;51.458;7.000;2023-03-07T00:00:39;12.50;;;8.48;;
37973;SDS011;23796;51.458;7.000;2023-03-07T00:03:05;12.57;;;8.85;;
37973;SDS011;23796;51.458;7.000;2023-03-07T00:05:31;12.40;;;9.05;;
37973;SDS011;23796;51.458;7.000;2023-03-07T00:07:57;10.70;;;8.45;;
37973;SDS011;23796;51.458;7.000;2023-03-07T00:10:23;9.82;;;7.55;;
37973;SDS011;23796;51.458;7.000;2023-03-07T00:12:49;10.30;;;7.97;;
37973;SDS011;23796;51.458;7.000;2023-03-07T00:15:15;8.93;;;7.47;;
37973;SDS011;23796;51.458;7.000;2023-03-07T00:17:41;11.50;;;7.30;;
37973;SDS011;23796;51.458;7.000;2023-03-07T00:20:10;11.15;;;8.00;;
37973;SDS011;23796;51.458;7.000;2023-03-07T00:22:38;8.85;;;7.00;;
37973;SDS011;23796;51.458;7.000;2023-03-07T00:25:04;8.93;;;6.80;;
37973;SDS011;23796;51.458;7.000;2023-03-07T00:27:32;9.43;;;7.05;;
37973;SDS011;23796;51.458;7.000;2023-03-07T00:29:58;9.93;;;7.05;;
37973;SDS011;23796;51.458;7.000;2023-03-07T00:32:24;9.43;;;6.72;;
37973;SDS011;23796;51.458;7.000;2023-03-07T00:34:51;8.10;;;6.50;;
37973;SDS011;23796;51.458;7.000;2023-03-07T00:37:21;7.82;;;6.07;;
37973;SDS011;23796;51.458;7.000;2023-03-07T00:39:49;7.45;;;5.82;;
37973;SDS011;23796;51.458;7.000;2023-03-07T00:42:18;8.55;;;6.60;;
37973;SDS011;23796;51.458;7.000;2023-03-07T00:44:43;8.07;;;6.35;;
37973;SDS011;23796;51.458;7.000;2023-03-07T00:47:09;8.60;;;6.80;;
37973;SDS011;23796;51.458;7.000;2023-03-07T00:49:34;7.63;;;6.43;;
37973;SDS011;23796;51.458;7.000;2023-03-07T00:52:00;8.68;;;6.47;;
37973;SDS011;23796;51.458;7.000;2023-03-07T00:54:25;7.60;;;6.20;;
37973;SDS011;23796;51.458;7.000;2023-03-07T00:56:54;8.63;;;6.55;;
37973;SDS011;23796;51.458;7.000;2023-03-07T00:59:19;7.93;;;6.38;;
37973;SDS011;23796;51.458;7.000;2023-03-07T01:01:45;8.82;;;6.72;;
37973;SDS011;23796;51.458;7.000;2023-03-07T01:04:12;7.75;;;6.50;;
37973;SDS011;23796;51.458;7.000;2023-03-07T01:06:38;8.05;;;6.43;;
37973;SDS011;23796;51.458;7.000;2023-03-07T01:09:05;10.05;;;6.75;;
37973;SDS011;23796;51.458;7.000;2023-03-07T01:11:32;8.40;;;7.07;;
37973;SDS011;23796;51.458;7.000;2023-03-07T01:13:59;8.52;;;7.03;;
37973;SDS011;23796;51.458;7.000;2023-03-07T01:16:33;9.45;;;7.60;;
37973;SDS011;23796;51.458;7.000;2023-03-07T01:19:05;8.95;;;8.05;;
37973;SDS011;23796;51.458;7.000;2023-03-07T01:21:37;8.02;;;7.00;;
37973;SDS011;23796;51.458;7.000;2023-03-07T01:24:07;8.43;;;6.90;;
37973;SDS011;23796;51.458;7.000;2023-03-07T01:26:34;9.30;;;7.45;;
37973;SDS011;23796;51.458;7.000;2023-03-07T01:29:01;8.57;;;7.68;;
37973;SDS011;23796;51.458;7.000;2023-03-07T01:31:28;9.25;;;7.60;;
37973;SDS011;23796;51.458;7.000;2023-03-07T01:33:57;11.00;;;9.27;;
37973;SDS011;23796;51.458;7.000;2023-03-07T01:36:24;10.20;;;9.20;;
37973;SDS011;23796;51.458;7.000;2023-03-07T01:38:54;10.23;;;8.90;;
37973;SDS011;23796;51.458;7.000;2023-03-07T01:41:26;9.32;;;8.25;;
37973;SDS011;23796;51.458;7.000;2023-03-07T01:43:56;9.82;;;8.57;;
37973;SDS011;23796;51.458;7.000;2023-03-07T01:49:14;9.60;;;8.60;;
37973;SDS011;23796;51.458;7.000;2023-03-07T01:51:44;9.83;;;8.60;;
37973;SDS011;23796;51.458;7.000;2023-03-07T01:54:19;9.32;;;8.13;;
37973;SDS011;23796;51.458;7.000;2023-03-07T01:56:46;9.63;;;7.07;;
37973;SDS011;23796;51.458;7.000;2023-03-07T01:59:12;7.85;;;6.65;;
37973;SDS011;23796;51.458;7.000;2023-03-07T02:01:42;6.43;;;5.82;;
37973;SDS011;23796;51.458;7.000;2023-03-07T02:06:38;6.40;;;5.70;;
37973;SDS011;23796;51.458;7.000;2023-03-07T02:09:05;5.68;;;4.50;;
37973;SDS011;23796;51.458;7.000;2023-03-07T02:11:37;5.47;;;3.42;;
37973;SDS011;23796;51.458;7.000;2023-03-07T02:14:07;4.68;;;3.63;;
37973;SDS011;23796;51.458;7.000;2023-03-07T02:16:33;4.97;;;3.95;;
37973;SDS011;23796;51.458;7.000;2023-03-07T02:19:01;4.72;;;3.97;;
37973;SDS011;23796;51.458;7.000;2023-03-07T02:21:41;4.97;;;3.50;;
37973;SDS011;23796;51.458;7.000;2023-03-07T02:24:19;4.13;;;2.95;;
37973;SDS011;23796;51.458;7.000;2023-03-07T02:26:54;3.55;;;2.58;;
37973;SDS011;23796;51.458;7.000;2023-03-07T02:29:20;4.47;;;3.28;;
37973;SDS011;23796;51.458;7.000;2023-03-07T02:31:48;6.00;;;4.82;;
37973;SDS011;23796;51.458;7.000;2023-03-07T02:36:43;7.18;;;5.65;;
37973;SDS011;23796;51.458;7.000;2023-03-07T02:39:12;7.38;;;5.63;;
37973;SDS011;23796;51.458;7.000;2023-03-07T02:41:38;6.63;;;5.50;;
37973;SDS011;23796;51.458;7.000;2023-03-07T02:44:04;7.07;;;5.40;;
37973;SDS011;23796;51.458;7.000;2023-03-07T02:46:32;6.80;;;4.72;;
37973;SDS011;23796;51.458;7.000;2023-03-07T02:48:57;4.78;;;3.50;;
37973;SDS011;23796;51.458;7.000;2023-03-07T02:51:25;4.85;;;3.03;;
37973;SDS011;23796;51.458;7.000;2023-03-07T02:53:51;3.95;;;2.70;;
37973;SDS011;23796;51.458;7.000;2023-03-07T02:56:19;3.80;;;2.60;;
37973;SDS011;23796;51.458;7.000;2023-03-07T02:58:47;4.10;;;2.70;;
37973;SDS011;23796;51.458;7.000;2023-03-07T03:01:15;3.50;;;2.25;;
37973;SDS011;23796;51.458;7.000;2023-03-07T03:03:41;3.55;;;2.20;;
37973;SDS011;23796;51.458;7.000;2023-03-07T03:06:06;3.95;;;2.40;;
37973;SDS011;23796;51.458;7.000;2023-03-07T03:08:32;4.15;;;2.70;;
37973;SDS011;23796;51.458;7.000;2023-03-07T03:11:00;4.40;;;3.20;;
37973;SDS011;23796;51.458;7.000;2023-03-07T03:13:25;5.50;;;3.53;;
37973;SDS011;23796;51.458;7.000;2023-03-07T03:15:55;5.40;;;3.22;;
37973;SDS011;23796;51.458;7.000;2023-03-07T03:18:22;4.82;;;3.45;;
37973;SDS011;23796;51.458;7.000;2023-03-07T03:20:51;4.93;;;3.83;;
37973;SDS011;23796;51.458;7.000;2023-03-07T03:23:16;4.93;;;3.60;;
37973;SDS011;23796;51.458;7.000;2023-03-07T03:25:42;5.75;;;3.85;;
37973;SDS011;23796;51.458;7.000;2023-03-07T03:28:07;5.30;;;3.78;;
37973;SDS011;23796;51.458;7.000;2023-03-07T03:30:33;5.22;;;3.78;;
37973;SDS011;23796;51.458;7.000;2023-03-07T03:33:01;4.90;;;4.07;;
37973;SDS011;23796;51.458;7.000;2023-03-07T03:35:29;6.70;;;4.38;;
37973;SDS011;23796;51.458;7.000;2023-03-07T03:37:57;6.22;;;5.40;;
37973;SDS011;23796;51.458;7.000;2023-03-07T03:40:22;6.28;;;5.68;;
37973;SDS011;23796;51.458;7.000;2023-03-07T03:42:48;6.18;;;5.57;;
37973;SDS011;23796;51.458;7.000;2023-03-07T03:45:14;5.53;;;4.90;;
37973;SDS011;23796;51.458;7.000;2023-03-07T03:47:40;5.60;;;5.00;;
37973;SDS011;23796;51.458;7.000;2023-03-07T03:50:08;5.60;;;4.88;;
37973;SDS011;23796;51.458;7.000;2023-03-07T03:52:34;5.93;;;5.10;;
37973;SDS011;23796;51.458;7.000;2023-03-07T03:55:00;4.82;;;4.32;;
37973;SDS011;23796;51.458;7.000;2023-03-07T03:57:26;5.43;;;4.38;;
37973;SDS011;23796;51.458;7.000;2023-03-07T03:59:51;5.28;;;4.53;;
37973;SDS011;23796;51.458;7.000;2023-03-07T04:02:17;4.60;;;3.90;;
37973;SDS011;23796;51.458;7.000;2023-03-07T04:04:46;5.13;;;4.13;;
37973;SDS011;23796;51.458;7.000;2023-03-07T04:07:11;6.20;;;4.32;;
37973;SDS011;23796;51.458;7.000;2023-03-07T04:09:39;5.68;;;4.30;;
37973;SDS011;23796;51.458;7.000;2023-03-07T04:12:05;5.88;;;4.72;;
37973;SDS011;23796;51.458;7.000;2023-03-07T04:14:30;5.20;;;4.57;;
37973;SDS011;23796;51.458;7.000;2023-03-07T04:16:58;5.43;;;4.63;;
37973;SDS011;23796;51.458;7.000;2023-03-07T04:19:26;5.50;;;4.60;;
37973;SDS011;23796;51.458;7.000;2023-03-07T04:21:52;6.00;;;4.65;;
37973;SDS011;23796;51.458;7.000;2023-03-07T04:24:20;5.53;;;4.50;;
37973;SDS011;23796;51.458;7.000;2023-03-07T04:26:45;5.82;;;4.90;;
37973;SDS011;23796;51.458;7.000;2023-03-07T04:29:11;5.90;;;4.90;;
37973;SDS011;23796;51.458;7.000;2023-03-07T04:31:37;3.90;;;3.00;;
37973;SDS011;23796;51.458;7.000;2023-03-07T04:34:05;4.10;;;2.78;;
37973;SDS011;23796;51.458;7.000;2023-03-07T04:36:30;3.60;;;2.38;;
37973;SDS011;23796;51.458;7.000;2023-03-07T04:38:58;3.80;;;2.70;;
37973;SDS011;23796;51.458;7.000;2023-03-07T04:41:24;5.38;;;2.80;;
37973;SDS011;23796;51.458;7.000;2023-03-07T04:43:55;4.00;;;2.78;;
37973;SDS011;23796;51.458;7.000;2023-03-07T04:46:20;4.50;;;3.00;;
37973;SDS011;23796;51.458;7.000;2023-03-07T04:48:46;4.47;;;3.13;;
37973;SDS011;23796;51.458;7.000;2023-03-07T04:51:12;4.88;;;3.88;;
37973;SDS011;23796;51.458;7.000;2023-03-07T04:53:38;4.70;;;3.67;;
37973;SDS011;23796;51.458;7.000;2023-03-07T04:56:06;6.35;;;3.92;;
37973;SDS011;23796;51.458;7.000;2023-03-07T04:58:35;6.25;;;4.68;;
37973;SDS011;23796;51.458;7.000;2023-03-07T05:01:02;6.28;;;5.07;;
37973;SDS011;23796;51.458;7.000;2023-03-07T05:03:28;6.93;;;5.50;;
37973;SDS011;23796;51.458;7.000;2023-03-07T05:05:54;6.93;;;5.82;;
37973;SDS011;23796;51.458;7.000;2023-03-07T05:08:24;7.20;;;6.50;;
37973;SDS011;23796;51.458;7.000;2023-03-07T05:10:52;7.82;;;6.25;;
37973;SDS011;23796;51.458;7.000;2023-03-07T05:13:17;7.90;;;6.25;;
37973;SDS011;23796;51.458;7.000;2023-03-07T05:15:51;7.22;;;5.43;;
37973;SDS011;23796;51.458;7.000;2023-03-07T05:18:17;8.60;;;6.30;;
37973;SDS011;23796;51.458;7.000;2023-03-07T05:20:43;7.05;;;6.15;;
37973;SDS011;23796;51.458;7.000;2023-03-07T05:23:11;6.68;;;5.78;;
37973;SDS011;23796;51.458;7.000;2023-03-07T05:25:40;6.82;;;5.40;;
37973;SDS011;23796;51.458;7.000;2023-03-07T05:28:06;7.53;;;6.03;;
37973;SDS011;23796;51.458;7.000;2023-03-07T05:30:32;8.65;;;6.03;;
37973;SDS011;23796;51.458;7.000;2023-03-07T05:32:58;7.65;;;5.55;;
37973;SDS011;23796;51.458;7.000;2023-03-07T05:35:23;7.43;;;5.72;;
37973;SDS011;23796;51.458;7.000;2023-03-07T05:37:50;7.22;;;5.70;;
37973;SDS011;23796;51.458;7.000;2023-03-07T05:40:16;6.47;;;5.32;;
37973;SDS011;23796;51.458;7.000;2023-03-07T05:42:42;8.75;;;6.35;;
37973;SDS011;23796;51.458;7.000;2023-03-07T05:45:08;8.98;;;5.25;;
37973;SDS011;23796;51.458;7.000;2023-03-07T05:47:34;9.23;;;7.60;;
37973;SDS011;23796;51.458;7.000;2023-03-07T05:50:00;7.82;;;6.85;;
37973;SDS011;23796;51.458;7.000;2023-03-07T05:52:26;9.73;;;7.03;;
37973;SDS011;23796;51.458;7.000;2023-03-07T05:54:56;8.00;;;6.70;;
37973;SDS011;23796;51.458;7.000;2023-03-07T05:57:22;7.45;;;6.43;;
37973;SDS011;23796;51.458;7.000;2023-03-07T05:59:48;8.90;;;6.30;;
37973;SDS011;23796;51.458;7.000;2023-03-07T06:02:13;8.13;;;6.68;;
37973;SDS011;23796;51.458;7.000;2023-03-07T06:04:39;7.65;;;5.88;;
37973;SDS011;23796;51.458;7.000;2023-03-07T06:07:10;7.85;;;5.03;;
37973;SDS011;23796;51.458;7.000;2023-03-07T06:09:36;5.82;;;4.85;;
37973;SDS011;23796;51.458;7.000;2023-03-07T06:12:02;6.07;;;5.07;;
37973;SDS011;23796;51.458;7.000;2023-03-07T06:14:30;7.55;;;4.90;;
37973;SDS011;23796;51.458;7.000;2023-03-07T06:16:56;7.30;;;5.30;;
37973;SDS011;23796;51.458;7.000;2023-03-07T06:19:21;7.70;;;4.95;;
37973;SDS011;23796;51.458;7.000;2023-03-07T06:21:47;6.57;;;5.18;;
37973;SDS011;23796;51.458;7.000;2023-03-07T06:24:13;6.90;;;5.20;;
37973;SDS011;23796;51.458;7.000;2023-03-07T06:26:41;7.10;;;5.55;;
37973;SDS011;23796;51.458;7.000;2023-03-07T06:31:36;6.70;;;4.80;;
37973;SDS011;23796;51.458;7.000;2023-03-07T06:34:02;6.43;;;4.90;;
37973;SDS011;23796;51.458;7.000;2023-03-07T06:36:32;7.63;;;5.55;;
37973;SDS011;23796;51.458;7.000;2023-03-07T06:38:58;6.50;;;5.20;;
37973;SDS011;23796;51.458;7.000;2023-03-07T06:41:24;7.85;;;6.50;;
37973;SDS011;23796;51.458;7.000;2023-03-07T06:43:50;7.50;;;5.63;;
37973;SDS011;23796;51.458;7.000;2023-03-07T06:46:18;6.53;;;5.32;;
37973;SDS011;23796;51.458;7.000;2023-03-07T06:48:46;6.70;;;4.90;;
37973;SDS011;23796;51.458;7.000;2023-03-07T06:51:15;7.38;;;5.97;;
37973;SDS011;23796;51.458;7.000;2023-03-07T06:53:44;8.23;;;5.90;;
37973;SDS011;23796;51.458;7.000;2023-03-07T06:56:09;6.95;;;5.43;;
37973;SDS011;23796;51.458;7.000;2023-03-07T06:58:39;9.10;;;6.65;;
37973;SDS011;23796;51.458;7.000;2023-03-07T07:01:05;7.90;;;6.40;;
37973;SDS011;23796;51.458;7.000;2023-03-07T07:03:31;7.95;;;6.20;;
37973;SDS011;23796;51.458;7.000;2023-03-07T07:05:56;9.32;;;6.43;;
37973;SDS011;23796;51.458;7.000;2023-03-07T07:08:22;8.60;;;6.22;;
37973;SDS011;23796;51.458;7.000;2023-03-07T07:10:47;8.05;;;6.25;;
37973;SDS011;23796;51.458;7.000;2023-03-07T07:13:13;6.70;;;5.65;;
37973;SDS011;23796;51.458;7.000;2023-03-07T07:15:39;7.22;;;5.72;;
37973;SDS011;23796;51.458;7.000;2023-03-07T07:18:07;8.48;;;6.38;;
37973;SDS011;23796;51.458;7.000;2023-03-07T07:20:34;7.25;;;6.05;;
37973;SDS011;23796;51.458;7.000;2023-03-07T07:23:00;9.75;;;6.70;;
37973;SDS011;23796;51.458;7.000;2023-03-07T07:25:30;7.70;;;6.03;;
37973;SDS011;23796;51.458;7.000;2023-03-07T07:27:58;7.88;;;6.20;;
37973;SDS011;23796;51.458;7.000;2023-03-07T07:30:23;8.95;;;6.50;;
37973;SDS011;23796;51.458;7.000;2023-03-07T07:32:49;7.47;;;6.13;;
37973;SDS011;23796;51.458;7.000;2023-03-07T07:35:17;7.72;;;5.78;;
37973;SDS011;23796;51.458;7.000;2023-03-07T07:37:43;8.88;;;7.00;;
37973;SDS011;23796;51.458;7.000;2023-03-07T07:40:08;7.80;;;6.53;;
37973;SDS011;23796;51.458;7.000;2023-03-07T07:42:34;8.50;;;7.00;;
37973;SDS011;23796;51.458;7.000;2023-03-07T07:45:00;7.65;;;6.10;;
37973;SDS011;23796;51.458;7.000;2023-03-07T07:47:26;9.05;;;6.38;;
37973;SDS011;23796;51.458;7.000;2023-03-07T07:49:53;8.18;;;6.93;;
37973;SDS011;23796;51.458;7.000;2023-03-07T07:52:22;8.32;;;7.10;;
37973;SDS011;23796;51.458;7.000;2023-03-07T07:54:47;9.05;;;6.85;;
37973;SDS011;23796;51.458;7.000;2023-03-07T07:57:13;8.75;;;6.40;;
37973;SDS011;23796;51.458;7.000;2023-03-07T07:59:38;9.57;;;7.32;;
37973;SDS011;23796;51.458;7.000;2023-03-07T08:02:04;8.98;;;7.10;;
37973;SDS011;23796;51.458;7.000;2023-03-07T08:04:37;9.30;;;7.15;;
37973;SDS011;23796;51.458;7.000;2023-03-07T08:07:03;8.65;;;6.45;;
37973;SDS011;23796;51.458;7.000;2023-03-07T08:09:28;10.07;;;7.40;;
37973;SDS011;23796;51.458;7.000;2023-03-07T08:11:58;10.45;;;7.32;;
37973;SDS011;23796;51.458;7.000;2023-03-07T08:14:24;9.00;;;6.93;;
37973;SDS011;23796;51.458;7.000;2023-03-07T08:16:52;9.80;;;7.18;;
37973;SDS011;23796;51.458;7.000;2023-03-07T08:19:17;12.38;;;7.20;;
37973;SDS011;23796;51.458;7.000;2023-03-07T08:21:43;10.82;;;7.82;;
37973;SDS011;23796;51.458;7.000;2023-03-07T08:24:09;9.80;;;6.80;;
37973;SDS011;23796;51.458;7.000;2023-03-07T08:26:34;10.60;;;7.18;;
37973;SDS011;23796;51.458;7.000;2023-03-07T08:29:00;9.98;;;6.90;;
37973;SDS011;23796;51.458;7.000;2023-03-07T08:31:26;10.20;;;7.75;;
37973;SDS011;23796;51.458;7.000;2023-03-07T08:33:51;10.05;;;7.78;;
37973;SDS011;23796;51.458;7.000;2023-03-07T08:36:22;10.70;;;8.13;;
37973;SDS011;23796;51.458;7.000;2023-03-07T08:38:50;10.55;;;9.20;;
37973;SDS011;23796;51.458;7.000;2023-03-07T08:41:16;8.80;;;7.40;;
37973;SDS011;23796;51.458;7.000;2023-03-07T08:43:43;9.88;;;8.02;;
37973;SDS011;23796;51.458;7.000;2023-03-07T08:46:08;10.32;;;8.32;;
37973;SDS011;23796;51.458;7.000;2023-03-07T08:48:34;10.93;;;9.05;;
37973;SDS011;23796;51.458;7.000;2023-03-07T08:51:07;13.05;;;10.55;;
37973;SDS011;23796;51.458;7.000;2023-03-07T08:53:35;12.52;;;10.70;;
37973;SDS011;23796;51.458;7.000;2023-03-07T08:56:06;10.90;;;9.77;;
37973;SDS011;23796;51.458;7.000;2023-03-07T08:58:36;10.52;;;7.28;;
37973;SDS011;23796;51.458;7.000;2023-03-07T09:01:02;9.68;;;7.70;;
37973;SDS011;23796;51.458;7.000;2023-03-07T09:03:32;11.43;;;8.52;;
37973;SDS011;23796;51.458;7.000;2023-03-07T09:06:01;9.63;;;8.15;;
37973;SDS011;23796;51.458;7.000;2023-03-07T09:08:28;11.52;;;8.98;;
37973;SDS011;23796;51.458;7.000;2023-03-07T09:10:53;11.13;;;9.35;;
37973;SDS011;23796;51.458;7.000;2023-03-07T09:13:21;12.40;;;9.98;;
37973;SDS011;23796;51.458;7.000;2023-03-07T09:15:46;11.82;;;9.60;;
37973;SDS011;23796;51.458;7.000;2023-03-07T09:18:14;13.20;;;10.75;;
37973;SDS011;23796;51.458;7.000;2023-03-07T09:20:40;12.80;;;10.75;;
37973;SDS011;23796;51.458;7.000;2023-03-07T09:23:08;13.70;;;10.43;;
37973;SDS011;23796;51.458;7.000;2023-03-07T09:25:35;11.65;;;8.38;;
37973;SDS011;23796;51.458;7.000;2023-03-07T09:28:00;8.32;;;6.53;;
37973;SDS011;23796;51.458;7.000;2023-03-07T09:30:26;7.40;;;4.97;;
37973;SDS011;23796;51.458;7.000;2023-03-07T09:32:52;5.35;;;3.13;;
37973;SDS011;23796;51.458;7.000;2023-03-07T09:35:18;4.40;;;2.33;;
37973;SDS011;23796;51.458;7.000;2023-03-07T09:37:46;4.50;;;2.38;;
37973;SDS011;23796;51.458;7.000;2023-03-07T09:40:15;4.35;;;2.40;;
37973;SDS011;23796;51.458;7.000;2023-03-07T09:42:54;3.80;;;2.20;;
37973;SDS011;23796;51.458;7.000;2023-03-07T09:45:23;3.97;;;2.20;;
37973;SDS011;23796;51.458;7.000;2023-03-07T09:48:10;4.53;;;2.40;;
37973;SDS011;23796;51.458;7.000;2023-03-07T09:54:00;4.20;;;2.17;;
37973;SDS011;23796;51.458;7.000;2023-03-07T09:56:39;3.58;;;2.20;;
37973;SDS011;23796;51.458;7.000;2023-03-07T09:59:26;4.00;;;2.17;;
37973;SDS011;23796;51.458;7.000;2023-03-07T10:05:10;3.95;;;2.08;;
37973;SDS011;23796;51.458;7.000;2023-03-07T10:07:56;3.60;;;1.83;;
37973;SDS011;23796;51.458;7.000;2023-03-07T10:10:23;3.70;;;2.08;;
37973;SDS011;23796;51.458;7.000;2023-03-07T10:16:08;4.00;;;2.20;;
37973;SDS011;23796;51.458;7.000;2023-03-07T10:19:43;3.60;;;1.90;;
37973;SDS011;23796;51.458;7.000;2023-03-07T10:27:41;3.03;;;1.77;;
37973;SDS011;23796;51.458;7.000;2023-03-07T10:30:14;3.50;;;2.10;;
37973;SDS011;23796;51.458;7.000;2023-03-07T10:32:55;3.42;;;1.90;;
37973;SDS011;23796;51.458;7.000;2023-03-07T10:35:40;3.65;;;2.15;;
37973;SDS011;23796;51.458;7.000;2023-03-07T10:40:42;4.43;;;3.25;;
37973;SDS011;23796;51.458;7.000;2023-03-07T10:43:28;4.47;;;3.22;;
37973;SDS011;23796;51.458;7.000;2023-03-07T10:46:12;4.80;;;3.53;;
37973;SDS011;23796;51.458;7.000;2023-03-07T10:48:55;4.68;;;3.00;;
37973;SDS011;23796;51.458;7.000;2023-03-07T10:54:21;4.68;;;3.17;;
37973;SDS011;23796;51.458;7.000;2023-03-07T10:57:04;5.32;;;3.15;;
37973;SDS011;23796;51.458;7.000;2023-03-07T10:59:35;4.28;;;2.78;;
37973;SDS011;23796;51.458;7.000;2023-03-07T11:02:06;4.60;;;3.03;;
37973;SDS011;23796;51.458;7.000;2023-03-07T11:04:53;4.75;;;2.65;;
37973;SDS011;23796;51.458;7.000;2023-03-07T11:10:01;5.90;;;4.15;;
37973;SDS011;23796;51.458;7.000;2023-03-07T11:12:48;5.72;;;3.72;;
37973;SDS011;23796;51.458;7.000;2023-03-07T11:15:17;5.63;;;4.18;;
37973;SDS011;23796;51.458;7.000;2023-03-07T11:17:47;6.68;;;4.32;;
37973;SDS011;23796;51.458;7.000;2023-03-07T11:22:44;4.72;;;3.45;;
37973;SDS011;23796;51.458;7.000;2023-03-07T11:25:23;5.22;;;3.88;;
37973;SDS011;23796;51.458;7.000;2023-03-07T11:27:55;6.25;;;4.20;;
37973;SDS011;23796;51.458;7.000;2023-03-07T11:41:05;7.55;;;5.22;;
37973;SDS011;23796;51.458;7.000;2023-03-07T12:00:55;15.40;;;11.97;;
37973;SDS011;23796;51.458;7.000;2023-03-07T12:20:30;13.85;;;10.70;;
37973;SDS011;23796;51.458;7.000;2023-03-07T12:23:12;10.60;;;8.57;;
37973;SDS011;23796;51.458;7.000;2023-03-07T12:26:02;11.00;;;6.95;;
37973;SDS011;23796;51.458;7.000;2023-03-07T12:31:22;11.30;;;6.72;;
37973;SDS011;23796;51.458;7.000;2023-03-07T12:33:59;6.68;;;5.15;;
37973;SDS011;23796;51.458;7.000;2023-03-07T12:36:40;6.85;;;4.97;;
37973;SDS011;23796;51.458;7.000;2023-03-07T12:41:58;6.93;;;4.95;;
37973;SDS011;23796;51.458;7.000;2023-03-07T12:50:14;6.72;;;3.63;;
37973;SDS011;23796;51.458;7.000;2023-03-07T12:58:18;7.28;;;4.60;;
37973;SDS011;23796;51.458;7.000;2023-03-07T13:06:18;7.40;;;4.35;;
37973;SDS011;23796;51.458;7.000;2023-03-07T13:08:49;6.72;;;4.50;;
37973;SDS011;23796;51.458;7.000;2023-03-07T13:11:19;8.35;;;4.78;;
37973;SDS011;23796;51.458;7.000;2023-03-07T13:13:55;6.70;;;5.07;;
37973;SDS011;23796;51.458;7.000;2023-03-07T13:16:32;6.38;;;4.70;;
37973;SDS011;23796;51.458;7.000;2023-03-07T13:19:41;6.55;;;4.50;;
37973;SDS011;23796;51.458;7.000;2023-03-07T13:22:03;6.95;;;4.45;;
37973;SDS011;23796;51.458;7.000;2023-03-07T13:24:41;6.55;;;4.65;;
37973;SDS011;23796;51.458;7.000;2023-03-07T13:27:17;5.90;;;4.63;;
37973;SDS011;23796;51.458;7.000;2023-03-07T13:40:51;11.02;;;5.55;;
37973;SDS011;23796;51.458;7.000;2023-03-07T13:55:48;7.80;;;5.80;;
37973;SDS011;23796;51.458;7.000;2023-03-07T14:01:02;9.60;;;6.30;;
37973;SDS011;23796;51.458;7.000;2023-03-07T14:03:49;10.40;;;8.50;;
37973;SDS011;23796;51.458;7.000;2023-03-07T14:06:18;7.93;;;6.40;;
37973;SDS011;23796;51.458;7.000;2023-03-07T14:08:46;9.07;;;6.43;;
37973;SDS011;23796;51.458;7.000;2023-03-07T14:16:29;8.48;;;5.97;;
37973;SDS011;23796;51.458;7.000;2023-03-07T14:27:14;8.60;;;6.03;;
37973;SDS011;23796;51.458;7.000;2023-03-07T14:29:46;8.27;;;6.40;;
37973;SDS011;23796;51.458;7.000;2023-03-07T14:32:19;8.52;;;6.18;;
37973;SDS011;23796;51.458;7.000;2023-03-07T14:34:46;9.40;;;6.68;;
37973;SDS011;23796;51.458;7.000;2023-03-07T14:37:20;6.93;;;5.03;;
37973;SDS011;23796;51.458;7.000;2023-03-07T14:51:13;6.82;;;4.53;;
37973;SDS011;23796;51.458;7.000;2023-03-07T14:53:43;6.50;;;4.32;;
37973;SDS011;23796;51.458;7.000;2023-03-07T14:56:09;6.30;;;4.55;;
37973;SDS011;23796;51.458;7.000;2023-03-07T14:58:36;9.02;;;5.30;;
37973;SDS011;23796;51.458;7.000;2023-03-07T15:01:15;7.88;;;4.97;;
37973;SDS011;23796;51.458;7.000;2023-03-07T15:03:44;7.32;;;4.82;;
37973;SDS011;23796;51.458;7.000;2023-03-07T15:06:15;6.05;;;4.55;;
37973;SDS011;23796;51.458;7.000;2023-03-07T15:08:45;6.10;;;3.90;;
37973;SDS011;23796;51.458;7.000;2023-03-07T15:11:23;6.05;;;3.60;;
37973;SDS011;23796;51.458;7.000;2023-03-07T15:19:30;7.32;;;5.05;;
37973;SDS011;23796;51.458;7.000;2023-03-07T15:21:55;5.90;;;3.88;;
37973;SDS011;23796;51.458;7.000;2023-03-07T15:24:36;5.43;;;3.90;;
37973;SDS011;23796;51.458;7.000;2023-03-07T15:27:05;5.13;;;3.20;;
37973;SDS011;23796;51.458;7.000;2023-03-07T15:29:34;5.53;;;3.65;;
37973;SDS011;23796;51.458;7.000;2023-03-07T15:32:01;6.45;;;3.00;;
37973;SDS011;23796;51.458;7.000;2023-03-07T15:34:37;6.00;;;3.47;;
37973;SDS011;23796;51.458;7.000;2023-03-07T15:37:23;6.07;;;3.47;;
37973;SDS011;23796;51.458;7.000;2023-03-07T15:42:22;6.45;;;2.75;;
37973;SDS011;23796;51.458;7.000;2023-03-07T15:44:56;4.95;;;3.17;;
37973;SDS011;23796;51.458;7.000;2023-03-07T15:47:26;5.75;;;3.20;;
37973;SDS011;23796;51.458;7.000;2023-03-07T15:49:59;5.45;;;3.13;;
37973;SDS011;23796;51.458;7.000;2023-03-07T15:52:31;5.05;;;3.17;;
37973;SDS011;23796;51.458;7.000;2023-03-07T15:55:01;4.93;;;3.17;;
37973;SDS011;23796;51.458;7.000;2023-03-07T15:57:35;4.68;;;3.17;;
37973;SDS011;23796;51.458;7.000;2023-03-07T16:04:55;4.88;;;3.92;;
37973;SDS011;23796;51.458;7.000;2023-03-07T16:07:21;6.13;;;4.25;;
37973;SDS011;23796;51.458;7.000;2023-03-07T16:09:47;7.15;;;4.32;;
37973;SDS011;23796;51.458;7.000;2023-03-07T16:12:13;6.05;;;4.45;;
37973;SDS011;23796;51.458;7.000;2023-03-07T16:14:41;6.68;;;4.75;;
37973;SDS011;23796;51.458;7.000;2023-03-07T16:19:49;6.82;;;5.57;;
37973;SDS011;23796;51.458;7.000;2023-03-07T16:22:16;7.05;;;6.13;;
37973;SDS011;23796;51.458;7.000;2023-03-07T16:24:43;7.03;;;6.20;;
37973;SDS011;23796;51.458;7.000;2023-03-07T16:27:12;7.38;;;6.40;;
37973;SDS011;23796;51.458;7.000;2023-03-07T16:29:40;8.60;;;6.72;;
37973;SDS011;23796;51.458;7.000;2023-03-07T16:32:09;6.15;;;5.50;;
37973;SDS011;23796;51.458;7.000;2023-03-07T16:34:41;7.25;;;6.13;;
37973;SDS011;23796;51.458;7.000;2023-03-07T16:37:09;7.13;;;5.90;;
37973;SDS011;23796;51.458;7.000;2023-03-07T16:39:35;7.15;;;5.97;;
37973;SDS011;23796;51.458;7.000;2023-03-07T16:42:02;7.25;;;6.15;;
37973;SDS011;23796;51.458;7.000;2023-03-07T16:44:29;9.18;;;7.00;;
37973;SDS011;23796;51.458;7.000;2023-03-07T16:49:22;7.80;;;5.40;;
37973;SDS011;23796;51.458;7.000;2023-03-07T16:51:49;6.05;;;4.45;;
37973;SDS011;23796;51.458;7.000;2023-03-07T16:54:15;7.97;;;5.43;;
37973;SDS011;23796;51.458;7.000;2023-03-07T16:56:41;6.30;;;3.80;;
37973;SDS011;23796;51.458;7.000;2023-03-07T16:59:16;6.88;;;4.45;;
37973;SDS011;23796;51.458;7.000;2023-03-07T17:01:46;6.07;;;2.75;;
37973;SDS011;23796;51.458;7.000;2023-03-07T17:04:13;5.03;;;2.15;;
37973;SDS011;23796;51.458;7.000;2023-03-07T17:06:39;4.63;;;2.05;;
37973;SDS011;23796;51.458;7.000;2023-03-07T17:09:06;4.20;;;2.20;;
37973;SDS011;23796;51.458;7.000;2023-03-07T17:11:36;4.45;;;2.25;;
37973;SDS011;23796;51.458;7.000;2023-03-07T17:14:04;5.20;;;2.17;;
37973;SDS011;23796;51.458;7.000;2023-03-07T17:16:34;4.72;;;2.25;;
37973;SDS011;23796;51.458;7.000;2023-03-07T17:19:03;4.38;;;1.92;;
37973;SDS011;23796;51.458;7.000;2023-03-07T17:21:30;4.15;;;1.88;;
37973;SDS011;23796;51.458;7.000;2023-03-07T17:23:56;5.13;;;1.77;;
37973;SDS011;23796;51.458;7.000;2023-03-07T17:26:29;3.80;;;1.70;;
37973;SDS011;23796;51.458;7.000;2023-03-07T17:29:01;4.28;;;1.38;;
37973;SDS011;23796;51.458;7.000;2023-03-07T17:31:30;4.43;;;1.90;;
37973;SDS011;23796;51.458;7.000;2023-03-07T17:33:55;6.15;;;2.30;;
37973;SDS011;23796;51.458;7.000;2023-03-07T17:36:23;6.68;;;2.15;;
37973;SDS011;23796;51.458;7.000;2023-03-07T17:38:49;3.80;;;2.40;;
37973;SDS011;23796;51.458;7.000;2023-03-07T17:41:14;4.57;;;2.45;;
37973;SDS011;23796;51.458;7.000;2023-03-07T17:43:42;5.28;;;2.70;;
37973;SDS011;23796;51.458;7.000;2023-03-07T17:46:11;5.57;;;3.90;;
37973;SDS011;23796;51.458;7.000;2023-03-07T17:48:39;4.43;;;3.05;;